< Cyclone 198207 1982 Season Cyclone 198209 >
Cyclone 198208 (ERROL)
General InformationTrack Information on Google MapsDetailed Wind InformationList of All Images || ResourceGoogle EarthGE AnimationAtom FeedGeoJSON
Detalied Best Track (Time Zone = UTC)
Year Month Day Hour Lat. Long. Pressure (hPa) Wind (kt) Class Image Chart
1982 1 11 00 -11.7 119.2 1003 25 2 Image --
1982 1 11 06 -12.1 119.0 1003 25 2 Image --
1982 1 11 12 -12.4 118.6 1003 25 2 Image --
1982 1 11 18 -12.7 118.3 1003 25 2 Image --
1982 1 12 00 -12.7 117.6 1002 25 2 Image --
1982 1 12 06 -12.7 117.2 1000 25 2 Image --
1982 1 12 12 -12.7 116.4 999 30 2 Image --
1982 1 12 18 -12.6 115.6 996 30 2 Image --
1982 1 13 00 -12.8 114.9 994 35 3 Image --
1982 1 13 06 -12.8 114.5 993 35 3 Image --
1982 1 13 12 -12.8 114.2 992 40 3 Image --
1982 1 13 18 -13.0 113.7 990 45 3 Image --
1982 1 14 00 -13.2 113.5 988 50 4 Image --
1982 1 14 06 -13.4 113.3 986 50 4 Image --
1982 1 14 12 -13.4 113.2 984 50 4 Image --
1982 1 14 18 -13.5 113.0 982 50 4 Image --
1982 1 15 00 -13.7 112.8 980 55 4 Image --
1982 1 15 06 -14.1 112.6 980 55 4 Image --
1982 1 15 12 -14.5 112.4 980 55 4 Image --
1982 1 15 18 -14.9 112.7 980 55 4 Image --
1982 1 16 00 -15.1 113.3 980 55 4 Image --
1982 1 16 06 -15.3 113.7 982 55 4 Image --
1982 1 16 12 -15.5 113.7 984 55 4 Image --
1982 1 16 18 -15.7 113.8 986 55 4 Image --
1982 1 17 00 -15.9 113.8 988 50 4 Image --
1982 1 17 06 -16.2 113.9 988 50 4 Image --
1982 1 17 12 -16.7 114.6 988 40 3 Image --
1982 1 17 18 -16.7 115.3 988 40 3 Image --
1982 1 18 00 -16.7 116.9 988 35 3 Image --
1982 1 18 06 -17.3 118.2 985 30 2 Image --
1982 1 18 09 -17.6 118.6 988 30 2 Image --
1982 1 18 12 -18.5 118.7 988 30 2 Image --
1982 1 18 15 -19.3 118.5 988 30 2 Image --
< Cyclone 198207 1982 Season Cyclone 198209 >

Help